sensor_id;sensor_type;location;lat;lon;timestamp;temperature;humidity
15328;DHT22;7764;51.430;6.840;2023-04-25T00:01:35;8.10;99.90
15328;DHT22;7764;51.430;6.840;2023-04-25T00:04:03;8.10;99.90
15328;DHT22;7764;51.430;6.840;2023-04-25T00:06:31;8.10;99.90
15328;DHT22;7764;51.430;6.840;2023-04-25T00:08:58;8.10;99.90
15328;DHT22;7764;51.430;6.840;2023-04-25T00:11:25;8.10;99.90
15328;DHT22;7764;51.430;6.840;2023-04-25T00:13:52;8.00;99.90
15328;DHT22;7764;51.430;6.840;2023-04-25T00:16:19;8.00;99.90
15328;DHT22;7764;51.430;6.840;2023-04-25T00:18:47;8.00;99.90
15328;DHT22;7764;51.430;6.840;2023-04-25T00:21:17;8.10;99.90
15328;DHT22;7764;51.430;6.840;2023-04-25T00:23:45;8.10;99.90
15328;DHT22;7764;51.430;6.840;2023-04-25T00:26:12;8.10;99.90
15328;DHT22;7764;51.430;6.840;2023-04-25T00:28:39;8.10;99.90
15328;DHT22;7764;51.430;6.840;2023-04-25T00:31:06;8.10;99.90
15328;DHT22;7764;51.430;6.840;2023-04-25T00:33:33;8.10;99.90
15328;DHT22;7764;51.430;6.840;2023-04-25T00:36:02;8.20;99.90
15328;DHT22;7764;51.430;6.840;2023-04-25T00:38:29;8.10;99.90
15328;DHT22;7764;51.430;6.840;2023-04-25T00:40:55;8.10;99.90
15328;DHT22;7764;51.430;6.840;2023-04-25T00:43:23;8.10;99.90
15328;DHT22;7764;51.430;6.840;2023-04-25T00:45:52;8.00;99.90
15328;DHT22;7764;51.430;6.840;2023-04-25T00:48:21;8.10;99.90
15328;DHT22;7764;51.430;6.840;2023-04-25T00:50:51;8.10;99.90
15328;DHT22;7764;51.430;6.840;2023-04-25T00:53:20;8.10;99.90
15328;DHT22;7764;51.430;6.840;2023-04-25T00:55:47;8.20;99.90
15328;DHT22;7764;51.430;6.840;2023-04-25T00:58:16;8.10;99.90
15328;DHT22;7764;51.430;6.840;2023-04-25T01:00:44;8.10;99.90
15328;DHT22;7764;51.430;6.840;2023-04-25T01:03:12;8.00;99.90
15328;DHT22;7764;51.430;6.840;2023-04-25T01:05:39;8.00;99.90
15328;DHT22;7764;51.430;6.840;2023-04-25T01:08:07;8.00;99.90
15328;DHT22;7764;51.430;6.840;2023-04-25T01:10:35;8.10;99.90
15328;DHT22;7764;51.430;6.840;2023-04-25T01:13:03;8.10;99.90
15328;DHT22;7764;51.430;6.840;2023-04-25T01:15:30;8.10;99.90
15328;DHT22;7764;51.430;6.840;2023-04-25T01:17:57;8.10;99.90
15328;DHT22;7764;51.430;6.840;2023-04-25T01:20:26;8.10;99.90
15328;DHT22;7764;51.430;6.840;2023-04-25T01:22:55;8.00;99.90
15328;DHT22;7764;51.430;6.840;2023-04-25T01:25:22;8.00;99.90
15328;DHT22;7764;51.430;6.840;2023-04-25T01:27:49;8.00;99.90
15328;DHT22;7764;51.430;6.840;2023-04-25T01:30:17;8.10;99.90
15328;DHT22;7764;51.430;6.840;2023-04-25T01:32:44;8.00;99.90
15328;DHT22;7764;51.430;6.840;2023-04-25T01:35:12;8.10;99.90
15328;DHT22;7764;51.430;6.840;2023-04-25T01:37:39;8.10;99.90
15328;DHT22;7764;51.430;6.840;2023-04-25T01:40:09;8.00;99.90
15328;DHT22;7764;51.430;6.840;2023-04-25T01:42:38;8.00;99.90
15328;DHT22;7764;51.430;6.840;2023-04-25T01:45:06;8.00;99.90
15328;DHT22;7764;51.430;6.840;2023-04-25T01:47:34;8.00;99.90
15328;DHT22;7764;51.430;6.840;2023-04-25T01:50:01;7.90;99.90
15328;DHT22;7764;51.430;6.840;2023-04-25T01:52:30;8.00;99.90
15328;DHT22;7764;51.430;6.840;2023-04-25T01:54:57;8.10;99.90
15328;DHT22;7764;51.430;6.840;2023-04-25T01:57:27;8.00;99.90
15328;DHT22;7764;51.430;6.840;2023-04-25T01:59:59;8.10;99.90
15328;DHT22;7764;51.430;6.840;2023-04-25T02:02:26;8.10;99.90
15328;DHT22;7764;51.430;6.840;2023-04-25T02:04:53;8.10;99.90
15328;DHT22;7764;51.430;6.840;2023-04-25T02:07:20;8.10;99.90
15328;DHT22;7764;51.430;6.840;2023-04-25T02:09:47;8.10;99.90
15328;DHT22;7764;51.430;6.840;2023-04-25T02:12:13;8.00;99.90
15328;DHT22;7764;51.430;6.840;2023-04-25T02:14:42;8.00;99.90
15328;DHT22;7764;51.430;6.840;2023-04-25T02:17:08;8.00;99.90
15328;DHT22;7764;51.430;6.840;2023-04-25T02:19:35;8.00;99.90
15328;DHT22;7764;51.430;6.840;2023-04-25T02:22:02;8.10;99.90
15328;DHT22;7764;51.430;6.840;2023-04-25T02:24:29;8.20;99.90
15328;DHT22;7764;51.430;6.840;2023-04-25T02:26:57;8.10;99.90
15328;DHT22;7764;51.430;6.840;2023-04-25T02:29:24;8.10;99.90
15328;DHT22;7764;51.430;6.840;2023-04-25T02:31:52;8.00;99.90
15328;DHT22;7764;51.430;6.840;2023-04-25T02:34:21;7.90;99.90
15328;DHT22;7764;51.430;6.840;2023-04-25T02:36:49;8.00;99.90
15328;DHT22;7764;51.430;6.840;2023-04-25T02:39:16;7.90;99.90
15328;DHT22;7764;51.430;6.840;2023-04-25T02:41:43;7.90;99.90
15328;DHT22;7764;51.430;6.840;2023-04-25T02:44:10;8.00;99.90
15328;DHT22;7764;51.430;6.840;2023-04-25T02:46:36;8.00;99.90
15328;DHT22;7764;51.430;6.840;2023-04-25T02:49:05;8.00;99.90
15328;DHT22;7764;51.430;6.840;2023-04-25T02:51:31;8.00;99.90
15328;DHT22;7764;51.430;6.840;2023-04-25T02:53:58;8.00;99.90
15328;DHT22;7764;51.430;6.840;2023-04-25T02:56:25;8.00;99.90
15328;DHT22;7764;51.430;6.840;2023-04-25T02:58:52;8.10;99.90
15328;DHT22;7764;51.430;6.840;2023-04-25T03:01:19;8.00;99.90
15328;DHT22;7764;51.430;6.840;2023-04-25T03:03:46;8.00;99.90
15328;DHT22;7764;51.430;6.840;2023-04-25T03:06:14;8.00;99.90
15328;DHT22;7764;51.430;6.840;2023-04-25T03:08:42;8.10;99.90
15328;DHT22;7764;51.430;6.840;2023-04-25T03:11:08;8.00;99.90
15328;DHT22;7764;51.430;6.840;2023-04-25T03:13:36;8.10;99.90
15328;DHT22;7764;51.430;6.840;2023-04-25T03:16:03;8.10;99.90
15328;DHT22;7764;51.430;6.840;2023-04-25T03:18:30;8.00;99.90
15328;DHT22;7764;51.430;6.840;2023-04-25T03:20:57;8.00;99.90
15328;DHT22;7764;51.430;6.840;2023-04-25T03:23:25;8.00;99.90
15328;DHT22;7764;51.430;6.840;2023-04-25T03:25:52;8.00;99.90
15328;DHT22;7764;51.430;6.840;2023-04-25T03:28:18;8.00;99.90
15328;DHT22;7764;51.430;6.840;2023-04-25T03:30:46;7.90;99.90
15328;DHT22;7764;51.430;6.840;2023-04-25T03:33:12;7.90;99.90
15328;DHT22;7764;51.430;6.840;2023-04-25T03:35:39;7.90;99.90
15328;DHT22;7764;51.430;6.840;2023-04-25T03:38:06;7.90;99.90
15328;DHT22;7764;51.430;6.840;2023-04-25T03:40:34;7.90;99.90
15328;DHT22;7764;51.430;6.840;2023-04-25T03:43:01;7.90;99.90
15328;DHT22;7764;51.430;6.840;2023-04-25T03:45:28;7.90;99.90
15328;DHT22;7764;51.430;6.840;2023-04-25T03:47:55;7.90;99.90
15328;DHT22;7764;51.430;6.840;2023-04-25T03:50:22;8.00;99.90
15328;DHT22;7764;51.430;6.840;2023-04-25T03:52:49;8.00;99.90
15328;DHT22;7764;51.430;6.840;2023-04-25T03:55:15;7.90;99.90
15328;DHT22;7764;51.430;6.840;2023-04-25T03:57:44;7.90;99.90
15328;DHT22;7764;51.430;6.840;2023-04-25T04:00:12;7.80;99.90
15328;DHT22;7764;51.430;6.840;2023-04-25T04:02:39;7.90;99.90
15328;DHT22;7764;51.430;6.840;2023-04-25T04:05:06;7.80;99.90
15328;DHT22;7764;51.430;6.840;2023-04-25T04:07:33;7.90;99.90
15328;DHT22;7764;51.430;6.840;2023-04-25T04:10:05;7.90;99.90
15328;DHT22;7764;51.430;6.840;2023-04-25T04:12:33;7.90;99.90
15328;DHT22;7764;51.430;6.840;2023-04-25T04:15:01;7.90;99.90
15328;DHT22;7764;51.430;6.840;2023-04-25T04:17:28;7.80;99.90
15328;DHT22;7764;51.430;6.840;2023-04-25T04:19:55;7.80;99.90
15328;DHT22;7764;51.430;6.840;2023-04-25T04:22:22;7.80;99.90
15328;DHT22;7764;51.430;6.840;2023-04-25T04:24:49;7.70;99.90
15328;DHT22;7764;51.430;6.840;2023-04-25T04:27:17;7.70;99.90
15328;DHT22;7764;51.430;6.840;2023-04-25T04:29:45;7.70;99.90
15328;DHT22;7764;51.430;6.840;2023-04-25T04:32:15;7.70;99.90
15328;DHT22;7764;51.430;6.840;2023-04-25T04:34:42;7.70;99.90
15328;DHT22;7764;51.430;6.840;2023-04-25T04:37:10;7.70;99.90
15328;DHT22;7764;51.430;6.840;2023-04-25T04:39:38;7.70;99.90
15328;DHT22;7764;51.430;6.840;2023-04-25T04:42:05;7.70;99.90
15328;DHT22;7764;51.430;6.840;2023-04-25T04:44:32;7.70;99.90
15328;DHT22;7764;51.430;6.840;2023-04-25T04:47:00;7.80;99.90
15328;DHT22;7764;51.430;6.840;2023-04-25T04:49:28;7.70;99.90
15328;DHT22;7764;51.430;6.840;2023-04-25T04:51:55;7.70;99.90
15328;DHT22;7764;51.430;6.840;2023-04-25T04:54:22;7.60;99.90
15328;DHT22;7764;51.430;6.840;2023-04-25T04:56:51;7.60;99.90
15328;DHT22;7764;51.430;6.840;2023-04-25T04:59:18;7.60;99.90
15328;DHT22;7764;51.430;6.840;2023-04-25T05:01:45;7.60;99.90
15328;DHT22;7764;51.430;6.840;2023-04-25T05:04:12;7.60;99.90
15328;DHT22;7764;51.430;6.840;2023-04-25T05:06:40;7.50;99.90
15328;DHT22;7764;51.430;6.840;2023-04-25T05:09:07;7.60;99.90
15328;DHT22;7764;51.430;6.840;2023-04-25T05:11:34;7.50;99.90
15328;DHT22;7764;51.430;6.840;2023-04-25T05:14:01;7.50;99.90
15328;DHT22;7764;51.430;6.840;2023-04-25T05:16:28;7.60;99.90
15328;DHT22;7764;51.430;6.840;2023-04-25T05:18:54;7.60;99.90
15328;DHT22;7764;51.430;6.840;2023-04-25T05:21:21;7.70;99.90
15328;DHT22;7764;51.430;6.840;2023-04-25T05:23:50;7.80;99.90
15328;DHT22;7764;51.430;6.840;2023-04-25T05:26:17;7.80;99.90
15328;DHT22;7764;51.430;6.840;2023-04-25T05:28:43;7.80;99.90
15328;DHT22;7764;51.430;6.840;2023-04-25T05:31:10;7.90;99.90
15328;DHT22;7764;51.430;6.840;2023-04-25T05:33:38;7.90;99.90
15328;DHT22;7764;51.430;6.840;2023-04-25T05:36:05;7.90;99.90
15328;DHT22;7764;51.430;6.840;2023-04-25T05:38:32;7.90;99.90
15328;DHT22;7764;51.430;6.840;2023-04-25T05:41:01;8.00;99.90
15328;DHT22;7764;51.430;6.840;2023-04-25T05:43:28;8.10;99.90
15328;DHT22;7764;51.430;6.840;2023-04-25T05:45:54;8.10;99.90
15328;DHT22;7764;51.430;6.840;2023-04-25T05:48:21;8.20;99.90
15328;DHT22;7764;51.430;6.840;2023-04-25T05:50:48;8.20;99.90
15328;DHT22;7764;51.430;6.840;2023-04-25T05:53:16;8.30;99.90
15328;DHT22;7764;51.430;6.840;2023-04-25T05:55:43;8.30;99.90
15328;DHT22;7764;51.430;6.840;2023-04-25T05:58:12;8.30;99.90
15328;DHT22;7764;51.430;6.840;2023-04-25T06:00:39;8.30;99.90
15328;DHT22;7764;51.430;6.840;2023-04-25T06:03:07;8.30;99.90
15328;DHT22;7764;51.430;6.840;2023-04-25T06:05:35;8.40;99.90
15328;DHT22;7764;51.430;6.840;2023-04-25T06:08:02;8.50;99.90
15328;DHT22;7764;51.430;6.840;2023-04-25T06:10:28;8.60;99.90
15328;DHT22;7764;51.430;6.840;2023-04-25T06:12:55;8.70;99.90
15328;DHT22;7764;51.430;6.840;2023-04-25T06:15:23;8.70;99.90
15328;DHT22;7764;51.430;6.840;2023-04-25T06:17:50;8.70;99.90
15328;DHT22;7764;51.430;6.840;2023-04-25T06:20:17;8.90;99.90
15328;DHT22;7764;51.430;6.840;2023-04-25T06:22:48;9.10;99.90
15328;DHT22;7764;51.430;6.840;2023-04-25T06:25:15;9.10;99.90
15328;DHT22;7764;51.430;6.840;2023-04-25T06:27:42;9.30;99.90
15328;DHT22;7764;51.430;6.840;2023-04-25T06:30:10;9.40;99.90
15328;DHT22;7764;51.430;6.840;2023-04-25T06:32:39;9.70;99.90
15328;DHT22;7764;51.430;6.840;2023-04-25T06:35:06;10.00;99.90
15328;DHT22;7764;51.430;6.840;2023-04-25T06:37:33;10.20;99.90
15328;DHT22;7764;51.430;6.840;2023-04-25T06:40:00;10.70;99.90
15328;DHT22;7764;51.430;6.840;2023-04-25T06:42:27;10.60;99.90
15328;DHT22;7764;51.430;6.840;2023-04-25T06:44:54;9.90;99.90
15328;DHT22;7764;51.430;6.840;2023-04-25T06:47:24;9.80;99.90
15328;DHT22;7764;51.430;6.840;2023-04-25T06:49:53;9.60;99.90
15328;DHT22;7764;51.430;6.840;2023-04-25T06:52:19;9.50;99.90
15328;DHT22;7764;51.430;6.840;2023-04-25T06:54:46;9.40;99.90
15328;DHT22;7764;51.430;6.840;2023-04-25T06:57:13;9.50;99.90
15328;DHT22;7764;51.430;6.840;2023-04-25T06:59:40;9.30;99.90
15328;DHT22;7764;51.430;6.840;2023-04-25T07:02:07;9.30;99.90
15328;DHT22;7764;51.430;6.840;2023-04-25T07:04:34;9.20;99.90
15328;DHT22;7764;51.430;6.840;2023-04-25T07:07:03;9.20;99.90
15328;DHT22;7764;51.430;6.840;2023-04-25T07:09:30;9.20;99.90
15328;DHT22;7764;51.430;6.840;2023-04-25T07:11:59;9.20;99.90
15328;DHT22;7764;51.430;6.840;2023-04-25T07:14:27;9.20;99.90
15328;DHT22;7764;51.430;6.840;2023-04-25T07:16:53;9.30;99.90
15328;DHT22;7764;51.430;6.840;2023-04-25T07:19:21;9.40;99.90
15328;DHT22;7764;51.430;6.840;2023-04-25T07:21:49;9.10;99.90
15328;DHT22;7764;51.430;6.840;2023-04-25T07:24:17;9.10;99.90
15328;DHT22;7764;51.430;6.840;2023-04-25T07:26:44;9.00;99.90
15328;DHT22;7764;51.430;6.840;2023-04-25T07:29:11;9.10;99.90
15328;DHT22;7764;51.430;6.840;2023-04-25T07:31:38;9.80;99.90
15328;DHT22;7764;51.430;6.840;2023-04-25T07:34:05;10.50;99.90
15328;DHT22;7764;51.430;6.840;2023-04-25T07:36:32;10.90;99.90
15328;DHT22;7764;51.430;6.840;2023-04-25T07:38:59;11.00;99.90
15328;DHT22;7764;51.430;6.840;2023-04-25T07:41:27;11.10;99.90
15328;DHT22;7764;51.430;6.840;2023-04-25T07:43:54;11.10;99.90
15328;DHT22;7764;51.430;6.840;2023-04-25T07:46:21;11.20;99.90
15328;DHT22;7764;51.430;6.840;2023-04-25T07:48:47;11.20;99.90
15328;DHT22;7764;51.430;6.840;2023-04-25T07:51:14;11.20;99.90
15328;DHT22;7764;51.430;6.840;2023-04-25T07:53:41;11.00;99.90
15328;DHT22;7764;51.430;6.840;2023-04-25T07:56:09;10.90;99.90
15328;DHT22;7764;51.430;6.840;2023-04-25T07:58:37;11.00;99.90
15328;DHT22;7764;51.430;6.840;2023-04-25T08:01:04;11.20;99.90
15328;DHT22;7764;51.430;6.840;2023-04-25T08:03:31;11.00;99.90
15328;DHT22;7764;51.430;6.840;2023-04-25T08:05:58;10.90;99.90
15328;DHT22;7764;51.430;6.840;2023-04-25T08:08:24;11.20;99.90
15328;DHT22;7764;51.430;6.840;2023-04-25T08:10:51;11.40;99.90
15328;DHT22;7764;51.430;6.840;2023-04-25T08:13:18;11.40;99.90
15328;DHT22;7764;51.430;6.840;2023-04-25T08:15:46;11.40;99.90
15328;DHT22;7764;51.430;6.840;2023-04-25T08:18:13;11.50;99.90
15328;DHT22;7764;51.430;6.840;2023-04-25T08:20:40;11.60;99.90
15328;DHT22;7764;51.430;6.840;2023-04-25T08:23:07;11.70;99.90
15328;DHT22;7764;51.430;6.840;2023-04-25T08:25:34;11.60;99.90
15328;DHT22;7764;51.430;6.840;2023-04-25T08:28:00;11.30;99.90
15328;DHT22;7764;51.430;6.840;2023-04-25T08:30:28;11.20;99.90
15328;DHT22;7764;51.430;6.840;2023-04-25T08:32:56;11.00;99.90
15328;DHT22;7764;51.430;6.840;2023-04-25T08:35:23;10.80;99.90
15328;DHT22;7764;51.430;6.840;2023-04-25T08:37:50;10.90;99.90
15328;DHT22;7764;51.430;6.840;2023-04-25T08:40:17;11.10;99.90
15328;DHT22;7764;51.430;6.840;2023-04-25T08:42:53;10.90;99.90
15328;DHT22;7764;51.430;6.840;2023-04-25T08:45:21;10.90;99.90
15328;DHT22;7764;51.430;6.840;2023-04-25T08:47:47;10.90;99.90
15328;DHT22;7764;51.430;6.840;2023-04-25T08:50:19;11.00;99.90
15328;DHT22;7764;51.430;6.840;2023-04-25T08:52:47;11.10;99.90
15328;DHT22;7764;51.430;6.840;2023-04-25T08:55:18;11.00;99.90
15328;DHT22;7764;51.430;6.840;2023-04-25T08:57:47;11.20;99.90
15328;DHT22;7764;51.430;6.840;2023-04-25T09:00:14;11.10;99.90
15328;DHT22;7764;51.430;6.840;2023-04-25T09:02:42;11.20;99.90
15328;DHT22;7764;51.430;6.840;2023-04-25T09:05:10;11.20;99.90
15328;DHT22;7764;51.430;6.840;2023-04-25T09:07:40;11.00;99.90
15328;DHT22;7764;51.430;6.840;2023-04-25T09:10:07;11.10;99.90
15328;DHT22;7764;51.430;6.840;2023-04-25T09:12:35;11.00;99.90
15328;DHT22;7764;51.430;6.840;2023-04-25T09:15:07;11.00;99.90
15328;DHT22;7764;51.430;6.840;2023-04-25T09:17:34;11.20;99.90
15328;DHT22;7764;51.430;6.840;2023-04-25T09:20:07;11.30;99.90
15328;DHT22;7764;51.430;6.840;2023-04-25T09:22:35;11.50;99.90
15328;DHT22;7764;51.430;6.840;2023-04-25T09:25:07;12.00;99.90
15328;DHT22;7764;51.430;6.840;2023-04-25T09:27:34;11.80;99.90
15328;DHT22;7764;51.430;6.840;2023-04-25T09:30:03;12.00;99.90
15328;DHT22;7764;51.430;6.840;2023-04-25T09:32:30;11.90;99.90
15328;DHT22;7764;51.430;6.840;2023-04-25T09:34:57;11.90;99.90
15328;DHT22;7764;51.430;6.840;2023-04-25T09:37:26;11.90;99.90
15328;DHT22;7764;51.430;6.840;2023-04-25T09:39:55;11.80;99.90
15328;DHT22;7764;51.430;6.840;2023-04-25T09:42:24;11.40;99.90
15328;DHT22;7764;51.430;6.840;2023-04-25T09:44:53;11.80;99.90
15328;DHT22;7764;51.430;6.840;2023-04-25T09:47:22;11.80;99.90
15328;DHT22;7764;51.430;6.840;2023-04-25T09:49:50;11.90;99.90
15328;DHT22;7764;51.430;6.840;2023-04-25T09:52:18;12.00;99.90
15328;DHT22;7764;51.430;6.840;2023-04-25T09:54:45;12.10;99.90
15328;DHT22;7764;51.430;6.840;2023-04-25T09:57:13;12.00;99.90
15328;DHT22;7764;51.430;6.840;2023-04-25T09:59:45;11.90;97.50
15328;DHT22;7764;51.430;6.840;2023-04-25T10:02:13;11.70;94.10
15328;DHT22;7764;51.430;6.840;2023-04-25T10:04:41;11.80;96.90
15328;DHT22;7764;51.430;6.840;2023-04-25T10:07:08;11.90;95.90
15328;DHT22;7764;51.430;6.840;2023-04-25T10:09:38;12.00;95.40
15328;DHT22;7764;51.430;6.840;2023-04-25T10:12:06;12.00;92.20
15328;DHT22;7764;51.430;6.840;2023-04-25T10:14:34;12.10;91.80
15328;DHT22;7764;51.430;6.840;2023-04-25T10:17:03;12.10;94.40
15328;DHT22;7764;51.430;6.840;2023-04-25T10:19:31;12.10;96.40
15328;DHT22;7764;51.430;6.840;2023-04-25T10:22:04;12.20;94.30
15328;DHT22;7764;51.430;6.840;2023-04-25T10:24:32;12.20;90.90
15328;DHT22;7764;51.430;6.840;2023-04-25T10:27:01;12.20;93.00
15328;DHT22;7764;51.430;6.840;2023-04-25T10:29:28;12.30;92.70
15328;DHT22;7764;51.430;6.840;2023-04-25T10:31:55;12.50;92.40
15328;DHT22;7764;51.430;6.840;2023-04-25T10:34:40;12.70;91.80
15328;DHT22;7764;51.430;6.840;2023-04-25T10:37:09;12.70;91.10
15328;DHT22;7764;51.430;6.840;2023-04-25T10:39:38;12.50;91.60
15328;DHT22;7764;51.430;6.840;2023-04-25T10:42:05;12.80;87.60
15328;DHT22;7764;51.430;6.840;2023-04-25T10:44:33;12.70;88.40
15328;DHT22;7764;51.430;6.840;2023-04-25T10:47:01;12.50;84.70
15328;DHT22;7764;51.430;6.840;2023-04-25T10:49:33;12.50;88.50
15328;DHT22;7764;51.430;6.840;2023-04-25T10:52:18;12.20;88.80
15328;DHT22;7764;51.430;6.840;2023-04-25T10:54:51;12.10;90.90
15328;DHT22;7764;51.430;6.840;2023-04-25T10:57:29;11.60;99.90
15328;DHT22;7764;51.430;6.840;2023-04-25T10:59:59;11.00;99.90
15328;DHT22;7764;51.430;6.840;2023-04-25T11:02:27;10.70;99.90
15328;DHT22;7764;51.430;6.840;2023-04-25T11:04:54;10.40;99.90
15328;DHT22;7764;51.430;6.840;2023-04-25T11:07:33;10.10;99.90
15328;DHT22;7764;51.430;6.840;2023-04-25T11:10:02;10.00;99.90
15328;DHT22;7764;51.430;6.840;2023-04-25T11:12:31;10.20;99.90
15328;DHT22;7764;51.430;6.840;2023-04-25T11:14:59;10.30;99.90
15328;DHT22;7764;51.430;6.840;2023-04-25T11:17:26;10.40;99.90
15328;DHT22;7764;51.430;6.840;2023-04-25T11:19:54;10.40;99.90
15328;DHT22;7764;51.430;6.840;2023-04-25T11:22:21;10.70;99.90
15328;DHT22;7764;51.430;6.840;2023-04-25T11:24:49;10.70;99.90
15328;DHT22;7764;51.430;6.840;2023-04-25T11:27:17;10.70;99.90
15328;DHT22;7764;51.430;6.840;2023-04-25T11:29:44;11.00;99.90
15328;DHT22;7764;51.430;6.840;2023-04-25T11:32:14;11.00;99.90
15328;DHT22;7764;51.430;6.840;2023-04-25T11:34:43;11.00;99.90
15328;DHT22;7764;51.430;6.840;2023-04-25T11:37:10;11.10;99.90
15328;DHT22;7764;51.430;6.840;2023-04-25T11:39:38;11.20;99.90
15328;DHT22;7764;51.430;6.840;2023-04-25T11:42:06;11.30;99.90
15328;DHT22;7764;51.430;6.840;2023-04-25T11:44:33;11.20;99.90
15328;DHT22;7764;51.430;6.840;2023-04-25T11:47:00;11.30;99.90
15328;DHT22;7764;51.430;6.840;2023-04-25T11:49:30;11.40;99.90
15328;DHT22;7764;51.430;6.840;2023-04-25T11:51:57;11.40;99.90
15328;DHT22;7764;51.430;6.840;2023-04-25T11:54:24;11.20;99.90
15328;DHT22;7764;51.430;6.840;2023-04-25T11:56:51;11.10;99.90
15328;DHT22;7764;51.430;6.840;2023-04-25T11:59:23;10.80;99.90
15328;DHT22;7764;51.430;6.840;2023-04-25T12:01:50;10.70;99.90
15328;DHT22;7764;51.430;6.840;2023-04-25T12:04:19;10.50;99.90
15328;DHT22;7764;51.430;6.840;2023-04-25T12:06:48;10.30;99.90
15328;DHT22;7764;51.430;6.840;2023-04-25T12:09:17;10.10;99.90
15328;DHT22;7764;51.430;6.840;2023-04-25T12:11:47;10.30;99.90
15328;DHT22;7764;51.430;6.840;2023-04-25T12:14:23;10.30;99.90
15328;DHT22;7764;51.430;6.840;2023-04-25T12:16:50;10.30;99.90
15328;DHT22;7764;51.430;6.840;2023-04-25T12:19:19;10.30;99.90
15328;DHT22;7764;51.430;6.840;2023-04-25T12:21:47;10.40;99.90
15328;DHT22;7764;51.430;6.840;2023-04-25T12:24:16;10.50;99.90
15328;DHT22;7764;51.430;6.840;2023-04-25T12:26:50;10.70;99.90
15328;DHT22;7764;51.430;6.840;2023-04-25T12:29:21;10.80;99.90
15328;DHT22;7764;51.430;6.840;2023-04-25T12:31:49;10.90;99.90
15328;DHT22;7764;51.430;6.840;2023-04-25T12:34:16;11.10;99.90
15328;DHT22;7764;51.430;6.840;2023-04-25T12:36:43;11.40;99.90
15328;DHT22;7764;51.430;6.840;2023-04-25T12:39:15;11.70;99.90
15328;DHT22;7764;51.430;6.840;2023-04-25T12:41:41;11.70;99.90
15328;DHT22;7764;51.430;6.840;2023-04-25T12:44:12;11.70;99.90
15328;DHT22;7764;51.430;6.840;2023-04-25T12:46:41;11.90;99.90
15328;DHT22;7764;51.430;6.840;2023-04-25T12:49:08;11.90;98.50
15328;DHT22;7764;51.430;6.840;2023-04-25T12:51:36;12.00;97.20
15328;DHT22;7764;51.430;6.840;2023-04-25T12:54:05;12.20;99.90
15328;DHT22;7764;51.430;6.840;2023-04-25T12:56:32;12.00;97.40
15328;DHT22;7764;51.430;6.840;2023-04-25T12:58:59;12.00;99.30
15328;DHT22;7764;51.430;6.840;2023-04-25T13:01:26;11.90;99.10
15328;DHT22;7764;51.430;6.840;2023-04-25T13:03:54;11.80;99.90
15328;DHT22;7764;51.430;6.840;2023-04-25T13:06:22;11.60;99.90
15328;DHT22;7764;51.430;6.840;2023-04-25T13:08:49;11.40;99.90
15328;DHT22;7764;51.430;6.840;2023-04-25T13:11:16;11.20;99.90
15328;DHT22;7764;51.430;6.840;2023-04-25T13:13:44;10.80;99.90
15328;DHT22;7764;51.430;6.840;2023-04-25T13:16:11;10.50;99.90
15328;DHT22;7764;51.430;6.840;2023-04-25T13:18:39;10.40;99.90
15328;DHT22;7764;51.430;6.840;2023-04-25T13:21:09;10.20;99.90
15328;DHT22;7764;51.430;6.840;2023-04-25T13:23:36;10.20;99.90
15328;DHT22;7764;51.430;6.840;2023-04-25T13:26:03;10.40;99.90
15328;DHT22;7764;51.430;6.840;2023-04-25T13:28:30;10.40;99.90
15328;DHT22;7764;51.430;6.840;2023-04-25T13:30:57;10.50;99.90
15328;DHT22;7764;51.430;6.840;2023-04-25T13:33:25;10.80;99.90
15328;DHT22;7764;51.430;6.840;2023-04-25T13:35:52;11.20;99.90
15328;DHT22;7764;51.430;6.840;2023-04-25T13:38:23;11.20;99.90
15328;DHT22;7764;51.430;6.840;2023-04-25T13:40:51;11.40;99.90
15328;DHT22;7764;51.430;6.840;2023-04-25T13:43:19;11.40;99.90
15328;DHT22;7764;51.430;6.840;2023-04-25T13:45:46;11.60;99.90
15328;DHT22;7764;51.430;6.840;2023-04-25T13:48:13;11.90;99.90
15328;DHT22;7764;51.430;6.840;2023-04-25T13:50:39;11.90;99.90
15328;DHT22;7764;51.430;6.840;2023-04-25T13:53:06;11.90;99.90
15328;DHT22;7764;51.430;6.840;2023-04-25T13:55:35;11.70;99.90
15328;DHT22;7764;51.430;6.840;2023-04-25T13:58:02;11.80;99.90
15328;DHT22;7764;51.430;6.840;2023-04-25T14:00:34;11.90;99.90
15328;DHT22;7764;51.430;6.840;2023-04-25T14:03:00;11.80;99.90
15328;DHT22;7764;51.430;6.840;2023-04-25T14:05:30;11.60;99.90
15328;DHT22;7764;51.430;6.840;2023-04-25T14:07:57;11.60;99.90
15328;DHT22;7764;51.430;6.840;2023-04-25T14:10:25;11.80;99.90
15328;DHT22;7764;51.430;6.840;2023-04-25T14:12:53;11.90;99.90
15328;DHT22;7764;51.430;6.840;2023-04-25T14:15:20;11.80;99.90
15328;DHT22;7764;51.430;6.840;2023-04-25T14:17:47;11.70;99.90
15328;DHT22;7764;51.430;6.840;2023-04-25T14:20:14;11.50;99.90
15328;DHT22;7764;51.430;6.840;2023-04-25T14:22:45;11.40;99.90
15328;DHT22;7764;51.430;6.840;2023-04-25T14:25:12;11.40;99.90
15328;DHT22;7764;51.430;6.840;2023-04-25T14:27:39;11.50;99.20
15328;DHT22;7764;51.430;6.840;2023-04-25T14:30:09;11.50;99.60
15328;DHT22;7764;51.430;6.840;2023-04-25T14:32:37;11.60;99.80
15328;DHT22;7764;51.430;6.840;2023-04-25T14:35:05;11.80;97.30
15328;DHT22;7764;51.430;6.840;2023-04-25T14:37:32;11.90;96.50
15328;DHT22;7764;51.430;6.840;2023-04-25T14:40:00;11.80;94.60
15328;DHT22;7764;51.430;6.840;2023-04-25T14:42:26;11.70;95.10
15328;DHT22;7764;51.430;6.840;2023-04-25T14:44:53;11.60;96.30
15328;DHT22;7764;51.430;6.840;2023-04-25T14:47:22;11.50;99.90
15328;DHT22;7764;51.430;6.840;2023-04-25T14:49:48;11.30;99.90
15328;DHT22;7764;51.430;6.840;2023-04-25T14:52:19;11.30;99.90
15328;DHT22;7764;51.430;6.840;2023-04-25T14:54:46;11.20;99.90
15328;DHT22;7764;51.430;6.840;2023-04-25T14:57:13;11.20;99.90
15328;DHT22;7764;51.430;6.840;2023-04-25T14:59:40;11.10;99.90
15328;DHT22;7764;51.430;6.840;2023-04-25T15:02:07;11.00;99.90
15328;DHT22;7764;51.430;6.840;2023-04-25T15:04:35;11.10;99.90
15328;DHT22;7764;51.430;6.840;2023-04-25T15:07:02;11.30;99.90
15328;DHT22;7764;51.430;6.840;2023-04-25T15:09:29;11.40;99.90
15328;DHT22;7764;51.430;6.840;2023-04-25T15:11:56;11.50;99.90
15328;DHT22;7764;51.430;6.840;2023-04-25T15:14:24;11.60;99.90
15328;DHT22;7764;51.430;6.840;2023-04-25T15:16:50;11.70;99.90
15328;DHT22;7764;51.430;6.840;2023-04-25T15:19:17;11.60;99.90
15328;DHT22;7764;51.430;6.840;2023-04-25T15:21:46;11.50;99.30
15328;DHT22;7764;51.430;6.840;2023-04-25T15:24:13;11.50;99.90
15328;DHT22;7764;51.430;6.840;2023-04-25T15:26:41;11.50;99.90
15328;DHT22;7764;51.430;6.840;2023-04-25T15:29:08;11.40;99.90
15328;DHT22;7764;51.430;6.840;2023-04-25T15:31:35;11.40;99.90
15328;DHT22;7764;51.430;6.840;2023-04-25T15:34:02;11.20;99.90
15328;DHT22;7764;51.430;6.840;2023-04-25T15:36:29;11.20;98.30
15328;DHT22;7764;51.430;6.840;2023-04-25T15:38:58;11.20;95.50
15328;DHT22;7764;51.430;6.840;2023-04-25T15:41:24;11.40;93.50
15328;DHT22;7764;51.430;6.840;2023-04-25T15:43:52;11.60;93.20
15328;DHT22;7764;51.430;6.840;2023-04-25T15:46:19;11.50;93.50
15328;DHT22;7764;51.430;6.840;2023-04-25T15:48:48;11.50;94.80
15328;DHT22;7764;51.430;6.840;2023-04-25T15:51:15;11.30;93.90
15328;DHT22;7764;51.430;6.840;2023-04-25T15:53:42;11.30;93.30
15328;DHT22;7764;51.430;6.840;2023-04-25T15:56:10;11.40;93.70